sensor_id;sensor_type;location;lat;lon;timestamp;P1;durP1;ratioP1;P2;durP2;ratioP2
55202;SDS011;41077;52.956;6.796;2022-12-18T00:01:32;109.47;;;42.83;;
55202;SDS011;41077;52.956;6.796;2022-12-18T00:04:01;97.82;;;39.38;;
55202;SDS011;41077;52.956;6.796;2022-12-18T00:06:30;102.60;;;42.00;;
55202;SDS011;41077;52.956;6.796;2022-12-18T00:08:58;110.07;;;42.80;;
55202;SDS011;41077;52.956;6.796;2022-12-18T00:11:26;120.70;;;44.08;;
55202;SDS011;41077;52.956;6.796;2022-12-18T00:13:54;118.38;;;44.35;;
55202;SDS011;41077;52.956;6.796;2022-12-18T00:16:22;105.82;;;42.88;;
55202;SDS011;41077;52.956;6.796;2022-12-18T00:18:49;120.75;;;43.47;;
55202;SDS011;41077;52.956;6.796;2022-12-18T00:21:17;114.90;;;40.60;;
55202;SDS011;41077;52.956;6.796;2022-12-18T00:23:44;126.18;;;47.42;;
55202;SDS011;41077;52.956;6.796;2022-12-18T00:26:12;124.90;;;45.83;;
55202;SDS011;41077;52.956;6.796;2022-12-18T00:28:43;140.77;;;50.35;;
55202;SDS011;41077;52.956;6.796;2022-12-18T00:31:10;138.35;;;48.17;;
55202;SDS011;41077;52.956;6.796;2022-12-18T00:33:40;131.10;;;44.05;;
55202;SDS011;41077;52.956;6.796;2022-12-18T00:36:10;145.05;;;49.50;;
55202;SDS011;41077;52.956;6.796;2022-12-18T00:38:38;128.50;;;47.60;;
55202;SDS011;41077;52.956;6.796;2022-12-18T00:41:04;128.60;;;47.42;;
55202;SDS011;41077;52.956;6.796;2022-12-18T00:43:30;140.43;;;48.92;;
55202;SDS011;41077;52.956;6.796;2022-12-18T00:45:58;144.25;;;46.25;;
55202;SDS011;41077;52.956;6.796;2022-12-18T00:48:24;146.20;;;51.35;;
55202;SDS011;41077;52.956;6.796;2022-12-18T00:50:50;148.65;;;48.90;;
55202;SDS011;41077;52.956;6.796;2022-12-18T00:53:16;135.85;;;52.45;;
55202;SDS011;41077;52.956;6.796;2022-12-18T00:55:42;141.57;;;48.05;;
55202;SDS011;41077;52.956;6.796;2022-12-18T00:58:08;151.48;;;50.15;;
55202;SDS011;41077;52.956;6.796;2022-12-18T01:00:35;133.52;;;48.15;;
55202;SDS011;41077;52.956;6.796;2022-12-18T01:03:01;147.38;;;50.30;;
55202;SDS011;41077;52.956;6.796;2022-12-18T01:05:27;140.45;;;47.05;;
55202;SDS011;41077;52.956;6.796;2022-12-18T01:07:53;134.80;;;48.28;;
55202;SDS011;41077;52.956;6.796;2022-12-18T01:10:20;139.85;;;46.30;;
55202;SDS011;41077;52.956;6.796;2022-12-18T01:12:45;117.72;;;47.75;;
55202;SDS011;41077;52.956;6.796;2022-12-18T01:15:11;125.68;;;47.65;;
55202;SDS011;41077;52.956;6.796;2022-12-18T01:17:38;110.38;;;47.17;;
55202;SDS011;41077;52.956;6.796;2022-12-18T01:20:04;119.95;;;47.58;;
55202;SDS011;41077;52.956;6.796;2022-12-18T01:22:31;123.90;;;45.88;;
55202;SDS011;41077;52.956;6.796;2022-12-18T01:24:56;118.32;;;50.40;;
55202;SDS011;41077;52.956;6.796;2022-12-18T01:27:22;105.93;;;47.63;;
55202;SDS011;41077;52.956;6.796;2022-12-18T01:29:48;123.43;;;47.13;;
55202;SDS011;41077;52.956;6.796;2022-12-18T01:32:14;112.03;;;46.88;;
55202;SDS011;41077;52.956;6.796;2022-12-18T01:34:40;115.72;;;46.47;;
55202;SDS011;41077;52.956;6.796;2022-12-18T01:37:06;108.97;;;46.40;;
55202;SDS011;41077;52.956;6.796;2022-12-18T01:39:31;121.82;;;48.10;;
55202;SDS011;41077;52.956;6.796;2022-12-18T01:41:58;118.45;;;46.50;;
55202;SDS011;41077;52.956;6.796;2022-12-18T01:47:18;118.80;;;47.50;;
55202;SDS011;41077;52.956;6.796;2022-12-18T01:49:50;133.60;;;48.47;;
55202;SDS011;41077;52.956;6.796;2022-12-18T01:52:16;114.13;;;44.42;;
55202;SDS011;41077;52.956;6.796;2022-12-18T01:54:43;121.05;;;47.13;;
55202;SDS011;41077;52.956;6.796;2022-12-18T01:57:10;121.03;;;46.80;;
55202;SDS011;41077;52.956;6.796;2022-12-18T01:59:36;114.53;;;42.95;;
55202;SDS011;41077;52.956;6.796;2022-12-18T02:02:03;117.72;;;45.25;;
55202;SDS011;41077;52.956;6.796;2022-12-18T02:04:28;116.53;;;43.78;;
55202;SDS011;41077;52.956;6.796;2022-12-18T02:06:57;115.55;;;44.75;;
55202;SDS011;41077;52.956;6.796;2022-12-18T02:09:34;125.80;;;47.90;;
55202;SDS011;41077;52.956;6.796;2022-12-18T02:12:12;138.00;;;48.00;;
55202;SDS011;41077;52.956;6.796;2022-12-18T02:17:20;108.13;;;44.90;;
55202;SDS011;41077;52.956;6.796;2022-12-18T02:27:46;103.73;;;44.10;;
55202;SDS011;41077;52.956;6.796;2022-12-18T02:30:14;113.43;;;44.72;;
55202;SDS011;41077;52.956;6.796;2022-12-18T02:32:42;117.50;;;46.40;;
55202;SDS011;41077;52.956;6.796;2022-12-18T02:35:13;117.07;;;44.08;;
55202;SDS011;41077;52.956;6.796;2022-12-18T02:37:43;130.75;;;47.60;;
55202;SDS011;41077;52.956;6.796;2022-12-18T02:40:11;113.80;;;42.20;;
55202;SDS011;41077;52.956;6.796;2022-12-18T02:42:39;109.75;;;41.47;;
55202;SDS011;41077;52.956;6.796;2022-12-18T02:45:05;120.97;;;44.35;;
55202;SDS011;41077;52.956;6.796;2022-12-18T02:47:32;104.70;;;42.28;;
55202;SDS011;41077;52.956;6.796;2022-12-18T02:50:07;105.10;;;42.55;;
55202;SDS011;41077;52.956;6.796;2022-12-18T02:56:28;100.15;;;41.50;;
55202;SDS011;41077;52.956;6.796;2022-12-18T03:01:42;102.70;;;40.40;;
55202;SDS011;41077;52.956;6.796;2022-12-18T03:04:19;97.43;;;41.58;;
55202;SDS011;41077;52.956;6.796;2022-12-18T03:06:49;92.40;;;41.50;;
55202;SDS011;41077;52.956;6.796;2022-12-18T03:09:22;112.85;;;40.60;;
55202;SDS011;41077;52.956;6.796;2022-12-18T03:11:54;95.10;;;41.93;;
55202;SDS011;41077;52.956;6.796;2022-12-18T03:14:42;108.07;;;40.22;;
55202;SDS011;41077;52.956;6.796;2022-12-18T03:17:10;100.28;;;41.75;;
55202;SDS011;41077;52.956;6.796;2022-12-18T03:19:39;102.50;;;40.95;;
55202;SDS011;41077;52.956;6.796;2022-12-18T03:22:07;102.20;;;40.58;;
55202;SDS011;41077;52.956;6.796;2022-12-18T03:24:33;92.30;;;37.78;;
55202;SDS011;41077;52.956;6.796;2022-12-18T03:27:05;93.50;;;41.25;;
55202;SDS011;41077;52.956;6.796;2022-12-18T03:29:39;87.55;;;38.67;;
55202;SDS011;41077;52.956;6.796;2022-12-18T03:32:12;93.05;;;38.50;;
55202;SDS011;41077;52.956;6.796;2022-12-18T03:34:45;88.75;;;35.85;;
55202;SDS011;41077;52.956;6.796;2022-12-18T03:37:15;78.93;;;31.58;;
55202;SDS011;41077;52.956;6.796;2022-12-18T03:39:41;85.60;;;35.22;;
55202;SDS011;41077;52.956;6.796;2022-12-18T03:42:12;87.25;;;36.35;;
55202;SDS011;41077;52.956;6.796;2022-12-18T03:49:56;68.63;;;31.35;;
55202;SDS011;41077;52.956;6.796;2022-12-18T03:52:27;72.60;;;32.00;;
55202;SDS011;41077;52.956;6.796;2022-12-18T03:55:01;72.88;;;33.42;;
55202;SDS011;41077;52.956;6.796;2022-12-18T03:57:29;73.07;;;30.85;;
55202;SDS011;41077;52.956;6.796;2022-12-18T04:00:00;74.53;;;30.77;;
55202;SDS011;41077;52.956;6.796;2022-12-18T04:02:38;72.28;;;31.65;;
55202;SDS011;41077;52.956;6.796;2022-12-18T04:05:08;62.60;;;31.75;;
55202;SDS011;41077;52.956;6.796;2022-12-18T04:07:35;70.03;;;31.05;;
55202;SDS011;41077;52.956;6.796;2022-12-18T04:10:02;57.45;;;28.70;;
55202;SDS011;41077;52.956;6.796;2022-12-18T04:12:30;75.60;;;30.95;;
55202;SDS011;41077;52.956;6.796;2022-12-18T04:14:56;63.42;;;28.25;;
55202;SDS011;41077;52.956;6.796;2022-12-18T04:17:22;58.65;;;28.55;;
55202;SDS011;41077;52.956;6.796;2022-12-18T04:19:48;66.63;;;30.38;;
55202;SDS011;41077;52.956;6.796;2022-12-18T04:22:14;66.47;;;30.15;;
55202;SDS011;41077;52.956;6.796;2022-12-18T04:24:40;66.72;;;31.00;;
55202;SDS011;41077;52.956;6.796;2022-12-18T04:27:06;71.07;;;30.48;;
55202;SDS011;41077;52.956;6.796;2022-12-18T04:29:32;50.90;;;28.83;;
55202;SDS011;41077;52.956;6.796;2022-12-18T04:31:57;57.92;;;28.67;;
55202;SDS011;41077;52.956;6.796;2022-12-18T04:34:23;64.35;;;30.10;;
55202;SDS011;41077;52.956;6.796;2022-12-18T04:36:49;56.90;;;28.23;;
55202;SDS011;41077;52.956;6.796;2022-12-18T04:39:14;62.58;;;27.50;;
55202;SDS011;41077;52.956;6.796;2022-12-18T04:41:40;58.05;;;27.05;;
55202;SDS011;41077;52.956;6.796;2022-12-18T04:44:06;64.22;;;28.20;;
55202;SDS011;41077;52.956;6.796;2022-12-18T04:46:32;55.03;;;27.67;;
55202;SDS011;41077;52.956;6.796;2022-12-18T04:48:57;60.70;;;27.00;;
55202;SDS011;41077;52.956;6.796;2022-12-18T04:51:23;58.45;;;28.33;;
55202;SDS011;41077;52.956;6.796;2022-12-18T04:53:49;56.05;;;27.65;;
55202;SDS011;41077;52.956;6.796;2022-12-18T04:56:15;55.97;;;26.40;;
55202;SDS011;41077;52.956;6.796;2022-12-18T04:58:42;64.75;;;27.90;;
55202;SDS011;41077;52.956;6.796;2022-12-18T05:01:09;52.85;;;26.13;;
55202;SDS011;41077;52.956;6.796;2022-12-18T05:03:36;53.72;;;24.90;;
55202;SDS011;41077;52.956;6.796;2022-12-18T05:06:03;55.05;;;27.05;;
55202;SDS011;41077;52.956;6.796;2022-12-18T05:08:29;50.88;;;26.70;;
55202;SDS011;41077;52.956;6.796;2022-12-18T05:11:06;57.00;;;27.33;;
55202;SDS011;41077;52.956;6.796;2022-12-18T05:13:33;41.13;;;24.92;;
55202;SDS011;41077;52.956;6.796;2022-12-18T05:16:00;52.70;;;24.15;;
55202;SDS011;41077;52.956;6.796;2022-12-18T05:18:26;55.05;;;26.63;;
55202;SDS011;41077;52.956;6.796;2022-12-18T05:20:53;54.72;;;24.23;;
55202;SDS011;41077;52.956;6.796;2022-12-18T05:23:19;57.40;;;25.73;;
55202;SDS011;41077;52.956;6.796;2022-12-18T05:25:47;56.28;;;27.15;;
55202;SDS011;41077;52.956;6.796;2022-12-18T05:28:20;46.55;;;23.50;;
55202;SDS011;41077;52.956;6.796;2022-12-18T05:30:50;45.45;;;23.83;;
55202;SDS011;41077;52.956;6.796;2022-12-18T05:33:17;59.03;;;25.90;;
55202;SDS011;41077;52.956;6.796;2022-12-18T05:35:44;40.85;;;23.10;;
55202;SDS011;41077;52.956;6.796;2022-12-18T05:38:15;48.42;;;23.15;;
55202;SDS011;41077;52.956;6.796;2022-12-18T05:40:43;51.17;;;24.65;;
55202;SDS011;41077;52.956;6.796;2022-12-18T05:43:09;46.53;;;24.50;;
55202;SDS011;41077;52.956;6.796;2022-12-18T05:45:39;53.55;;;24.13;;
55202;SDS011;41077;52.956;6.796;2022-12-18T05:48:05;56.30;;;27.63;;
55202;SDS011;41077;52.956;6.796;2022-12-18T05:50:35;50.47;;;22.98;;
55202;SDS011;41077;52.956;6.796;2022-12-18T05:53:02;50.60;;;24.30;;
55202;SDS011;41077;52.956;6.796;2022-12-18T05:55:29;48.88;;;22.95;;
55202;SDS011;41077;52.956;6.796;2022-12-18T05:57:57;58.88;;;25.58;;
55202;SDS011;41077;52.956;6.796;2022-12-18T06:00:24;54.72;;;24.70;;
55202;SDS011;41077;52.956;6.796;2022-12-18T06:02:49;46.13;;;23.02;;
55202;SDS011;41077;52.956;6.796;2022-12-18T06:05:15;54.97;;;26.13;;
55202;SDS011;41077;52.956;6.796;2022-12-18T06:07:41;53.55;;;25.95;;
55202;SDS011;41077;52.956;6.796;2022-12-18T06:10:06;48.35;;;24.70;;
55202;SDS011;41077;52.956;6.796;2022-12-18T06:12:32;54.60;;;24.80;;
55202;SDS011;41077;52.956;6.796;2022-12-18T06:15:00;52.15;;;22.95;;
55202;SDS011;41077;52.956;6.796;2022-12-18T06:17:30;46.33;;;27.67;;
55202;SDS011;41077;52.956;6.796;2022-12-18T06:19:56;50.13;;;24.45;;
55202;SDS011;41077;52.956;6.796;2022-12-18T06:22:22;50.40;;;24.58;;
55202;SDS011;41077;52.956;6.796;2022-12-18T06:24:48;51.67;;;26.27;;
55202;SDS011;41077;52.956;6.796;2022-12-18T06:27:14;52.63;;;24.70;;
55202;SDS011;41077;52.956;6.796;2022-12-18T06:29:39;50.42;;;25.33;;
55202;SDS011;41077;52.956;6.796;2022-12-18T06:32:05;53.25;;;25.58;;
55202;SDS011;41077;52.956;6.796;2022-12-18T06:34:31;51.30;;;25.55;;
55202;SDS011;41077;52.956;6.796;2022-12-18T06:36:57;45.67;;;22.95;;
55202;SDS011;41077;52.956;6.796;2022-12-18T06:39:24;50.47;;;25.05;;
55202;SDS011;41077;52.956;6.796;2022-12-18T06:41:49;44.88;;;24.30;;
55202;SDS011;41077;52.956;6.796;2022-12-18T06:44:15;52.20;;;27.30;;
55202;SDS011;41077;52.956;6.796;2022-12-18T06:46:41;53.05;;;23.35;;
55202;SDS011;41077;52.956;6.796;2022-12-18T06:49:06;47.08;;;23.35;;
55202;SDS011;41077;52.956;6.796;2022-12-18T06:51:34;49.75;;;21.90;;
55202;SDS011;41077;52.956;6.796;2022-12-18T06:53:59;46.85;;;21.67;;
55202;SDS011;41077;52.956;6.796;2022-12-18T06:56:25;49.97;;;25.02;;
55202;SDS011;41077;52.956;6.796;2022-12-18T06:58:51;47.17;;;24.25;;
55202;SDS011;41077;52.956;6.796;2022-12-18T07:01:17;48.95;;;23.40;;
55202;SDS011;41077;52.956;6.796;2022-12-18T07:03:42;44.90;;;23.42;;
55202;SDS011;41077;52.956;6.796;2022-12-18T07:06:15;55.42;;;25.38;;
55202;SDS011;41077;52.956;6.796;2022-12-18T07:08:42;50.60;;;23.42;;
55202;SDS011;41077;52.956;6.796;2022-12-18T07:11:08;45.33;;;22.90;;
55202;SDS011;41077;52.956;6.796;2022-12-18T07:13:34;48.47;;;24.63;;
55202;SDS011;41077;52.956;6.796;2022-12-18T07:16:07;44.33;;;23.40;;
55202;SDS011;41077;52.956;6.796;2022-12-18T07:18:34;48.65;;;24.20;;
55202;SDS011;41077;52.956;6.796;2022-12-18T07:21:04;42.13;;;23.63;;
55202;SDS011;41077;52.956;6.796;2022-12-18T07:23:32;44.10;;;24.27;;
55202;SDS011;41077;52.956;6.796;2022-12-18T07:26:03;45.47;;;22.98;;
55202;SDS011;41077;52.956;6.796;2022-12-18T07:28:30;42.88;;;22.98;;
55202;SDS011;41077;52.956;6.796;2022-12-18T07:30:57;43.50;;;21.35;;
55202;SDS011;41077;52.956;6.796;2022-12-18T07:33:23;42.28;;;23.40;;
55202;SDS011;41077;52.956;6.796;2022-12-18T07:35:49;34.72;;;21.67;;
55202;SDS011;41077;52.956;6.796;2022-12-18T07:38:15;45.20;;;23.50;;
55202;SDS011;41077;52.956;6.796;2022-12-18T07:40:41;43.30;;;24.80;;
55202;SDS011;41077;52.956;6.796;2022-12-18T07:43:06;40.95;;;22.15;;
55202;SDS011;41077;52.956;6.796;2022-12-18T07:45:32;39.75;;;20.83;;
55202;SDS011;41077;52.956;6.796;2022-12-18T07:47:58;43.28;;;22.52;;
55202;SDS011;41077;52.956;6.796;2022-12-18T07:50:23;48.55;;;22.88;;
55202;SDS011;41077;52.956;6.796;2022-12-18T07:52:49;38.72;;;21.70;;
55202;SDS011;41077;52.956;6.796;2022-12-18T07:55:14;48.47;;;23.88;;
55202;SDS011;41077;52.956;6.796;2022-12-18T07:57:40;40.47;;;20.98;;
55202;SDS011;41077;52.956;6.796;2022-12-18T08:00:06;39.28;;;22.23;;
55202;SDS011;41077;52.956;6.796;2022-12-18T08:02:32;46.55;;;24.15;;
55202;SDS011;41077;52.956;6.796;2022-12-18T08:04:58;39.55;;;22.52;;
55202;SDS011;41077;52.956;6.796;2022-12-18T08:07:24;42.15;;;22.10;;
55202;SDS011;41077;52.956;6.796;2022-12-18T08:09:50;41.80;;;21.13;;
55202;SDS011;41077;52.956;6.796;2022-12-18T08:12:15;43.55;;;22.63;;
55202;SDS011;41077;52.956;6.796;2022-12-18T08:14:41;44.72;;;21.20;;
55202;SDS011;41077;52.956;6.796;2022-12-18T08:17:07;37.85;;;22.05;;
55202;SDS011;41077;52.956;6.796;2022-12-18T08:19:32;40.55;;;22.90;;
55202;SDS011;41077;52.956;6.796;2022-12-18T08:21:58;40.22;;;21.80;;
55202;SDS011;41077;52.956;6.796;2022-12-18T08:24:24;34.00;;;20.33;;
55202;SDS011;41077;52.956;6.796;2022-12-18T08:26:49;35.47;;;19.85;;
55202;SDS011;41077;52.956;6.796;2022-12-18T08:29:15;38.08;;;23.70;;
55202;SDS011;41077;52.956;6.796;2022-12-18T08:31:41;45.30;;;21.20;;
55202;SDS011;41077;52.956;6.796;2022-12-18T08:34:07;41.88;;;22.73;;
55202;SDS011;41077;52.956;6.796;2022-12-18T08:36:33;37.70;;;22.42;;
55202;SDS011;41077;52.956;6.796;2022-12-18T08:38:58;35.83;;;22.35;;
55202;SDS011;41077;52.956;6.796;2022-12-18T08:41:24;38.38;;;20.60;;
55202;SDS011;41077;52.956;6.796;2022-12-18T08:43:50;36.22;;;23.25;;
55202;SDS011;41077;52.956;6.796;2022-12-18T08:46:35;33.88;;;20.20;;
55202;SDS011;41077;52.956;6.796;2022-12-18T08:49:06;31.55;;;19.52;;
55202;SDS011;41077;52.956;6.796;2022-12-18T08:51:33;34.17;;;20.45;;
55202;SDS011;41077;52.956;6.796;2022-12-18T08:53:59;29.75;;;19.13;;
55202;SDS011;41077;52.956;6.796;2022-12-18T08:56:25;28.48;;;18.83;;
55202;SDS011;41077;52.956;6.796;2022-12-18T08:58:52;36.38;;;21.25;;
55202;SDS011;41077;52.956;6.796;2022-12-18T09:03:50;36.60;;;20.42;;
55202;SDS011;41077;52.956;6.796;2022-12-18T09:06:17;29.80;;;17.77;;
55202;SDS011;41077;52.956;6.796;2022-12-18T09:08:43;30.90;;;19.58;;
55202;SDS011;41077;52.956;6.796;2022-12-18T09:11:11;34.97;;;18.45;;
55202;SDS011;41077;52.956;6.796;2022-12-18T09:13:39;28.80;;;18.13;;
55202;SDS011;41077;52.956;6.796;2022-12-18T09:16:04;28.85;;;18.65;;
55202;SDS011;41077;52.956;6.796;2022-12-18T09:18:30;27.35;;;18.13;;
55202;SDS011;41077;52.956;6.796;2022-12-18T09:20:56;34.95;;;18.27;;
55202;SDS011;41077;52.956;6.796;2022-12-18T09:23:21;27.42;;;18.13;;
55202;SDS011;41077;52.956;6.796;2022-12-18T09:25:47;26.85;;;16.67;;
55202;SDS011;41077;52.956;6.796;2022-12-18T09:28:14;27.92;;;17.73;;
55202;SDS011;41077;52.956;6.796;2022-12-18T09:30:43;29.00;;;18.35;;
55202;SDS011;41077;52.956;6.796;2022-12-18T09:33:10;30.60;;;17.52;;
55202;SDS011;41077;52.956;6.796;2022-12-18T09:35:36;27.85;;;17.00;;
55202;SDS011;41077;52.956;6.796;2022-12-18T09:38:02;26.77;;;16.08;;
55202;SDS011;41077;52.956;6.796;2022-12-18T09:40:29;31.23;;;17.45;;
55202;SDS011;41077;52.956;6.796;2022-12-18T09:43:05;26.25;;;16.15;;
55202;SDS011;41077;52.956;6.796;2022-12-18T09:45:39;25.33;;;15.52;;
55202;SDS011;41077;52.956;6.796;2022-12-18T09:51:08;24.15;;;15.80;;
55202;SDS011;41077;52.956;6.796;2022-12-18T09:53:40;30.48;;;16.25;;
55202;SDS011;41077;52.956;6.796;2022-12-18T09:56:09;23.58;;;14.38;;
55202;SDS011;41077;52.956;6.796;2022-12-18T09:58:45;23.35;;;15.18;;
55202;SDS011;41077;52.956;6.796;2022-12-18T10:01:23;23.77;;;14.85;;
55202;SDS011;41077;52.956;6.796;2022-12-18T10:03:49;24.33;;;15.48;;
55202;SDS011;41077;52.956;6.796;2022-12-18T10:06:28;17.33;;;14.00;;
55202;SDS011;41077;52.956;6.796;2022-12-18T10:09:37;21.55;;;14.05;;
55202;SDS011;41077;52.956;6.796;2022-12-18T10:20:05;23.75;;;14.25;;
55202;SDS011;41077;52.956;6.796;2022-12-18T10:25:32;18.92;;;12.80;;
55202;SDS011;41077;52.956;6.796;2022-12-18T10:28:10;20.30;;;14.50;;
55202;SDS011;41077;52.956;6.796;2022-12-18T10:30:39;18.15;;;13.07;;
55202;SDS011;41077;52.956;6.796;2022-12-18T10:33:08;21.60;;;13.98;;
55202;SDS011;41077;52.956;6.796;2022-12-18T10:35:40;16.08;;;13.15;;
55202;SDS011;41077;52.956;6.796;2022-12-18T10:40:49;18.83;;;13.35;;
55202;SDS011;41077;52.956;6.796;2022-12-18T10:45:58;21.27;;;12.93;;
55202;SDS011;41077;52.956;6.796;2022-12-18T10:48:40;22.05;;;14.13;;
55202;SDS011;41077;52.956;6.796;2022-12-18T10:51:46;16.50;;;12.43;;
55202;SDS011;41077;52.956;6.796;2022-12-18T10:56:34;20.80;;;11.38;;
55202;SDS011;41077;52.956;6.796;2022-12-18T10:59:02;16.85;;;12.50;;
55202;SDS011;41077;52.956;6.796;2022-12-18T11:04:51;18.33;;;13.45;;
55202;SDS011;41077;52.956;6.796;2022-12-18T11:07:18;19.02;;;12.70;;
55202;SDS011;41077;52.956;6.796;2022-12-18T11:09:43;20.55;;;13.13;;
55202;SDS011;41077;52.956;6.796;2022-12-18T11:12:23;14.52;;;12.38;;
55202;SDS011;41077;52.956;6.796;2022-12-18T11:14:52;18.13;;;13.02;;
55202;SDS011;41077;52.956;6.796;2022-12-18T11:20:10;15.65;;;11.95;;
55202;SDS011;41077;52.956;6.796;2022-12-18T11:23:05;16.38;;;11.90;;
55202;SDS011;41077;52.956;6.796;2022-12-18T11:25:38;18.52;;;11.57;;
55202;SDS011;41077;52.956;6.796;2022-12-18T11:28:05;15.43;;;11.23;;
55202;SDS011;41077;52.956;6.796;2022-12-18T11:30:51;17.63;;;12.57;;
55202;SDS011;41077;52.956;6.796;2022-12-18T11:33:33;12.32;;;11.00;;
55202;SDS011;41077;52.956;6.796;2022-12-18T11:36:00;16.23;;;11.32;;
55202;SDS011;41077;52.956;6.796;2022-12-18T11:38:35;14.23;;;10.05;;
55202;SDS011;41077;52.956;6.796;2022-12-18T11:41:03;15.18;;;10.30;;
55202;SDS011;41077;52.956;6.796;2022-12-18T11:43:38;13.57;;;11.82;;
55202;SDS011;41077;52.956;6.796;2022-12-18T11:46:15;13.27;;;9.85;;
55202;SDS011;41077;52.956;6.796;2022-12-18T11:48:49;12.40;;;10.57;;
55202;SDS011;41077;52.956;6.796;2022-12-18T11:52:31;14.98;;;10.82;;
55202;SDS011;41077;52.956;6.796;2022-12-18T11:54:34;13.65;;;10.55;;
55202;SDS011;41077;52.956;6.796;2022-12-18T11:57:07;13.15;;;10.20;;
55202;SDS011;41077;52.956;6.796;2022-12-18T11:59:49;12.98;;;10.15;;
55202;SDS011;41077;52.956;6.796;2022-12-18T12:05:10;14.25;;;10.98;;
55202;SDS011;41077;52.956;6.796;2022-12-18T12:13:33;16.08;;;11.00;;
55202;SDS011;41077;52.956;6.796;2022-12-18T12:21:41;12.57;;;10.38;;
55202;SDS011;41077;52.956;6.796;2022-12-18T12:34:42;11.45;;;9.27;;
55202;SDS011;41077;52.956;6.796;2022-12-18T12:40:01;15.70;;;10.75;;
55202;SDS011;41077;52.956;6.796;2022-12-18T12:45:23;12.77;;;9.70;;
55202;SDS011;41077;52.956;6.796;2022-12-18T12:47:55;11.25;;;9.95;;
55202;SDS011;41077;52.956;6.796;2022-12-18T12:50:23;13.68;;;9.73;;
55202;SDS011;41077;52.956;6.796;2022-12-18T12:52:53;12.15;;;9.40;;
55202;SDS011;41077;52.956;6.796;2022-12-18T12:55:25;13.88;;;8.60;;
55202;SDS011;41077;52.956;6.796;2022-12-18T12:58:06;10.40;;;9.02;;
55202;SDS011;41077;52.956;6.796;2022-12-18T13:00:39;11.52;;;10.15;;
55202;SDS011;41077;52.956;6.796;2022-12-18T13:09:11;10.73;;;9.23;;
55202;SDS011;41077;52.956;6.796;2022-12-18T13:11:43;13.45;;;9.93;;
55202;SDS011;41077;52.956;6.796;2022-12-18T13:14:30;11.73;;;9.35;;
55202;SDS011;41077;52.956;6.796;2022-12-18T13:19:48;16.60;;;9.88;;
55202;SDS011;41077;52.956;6.796;2022-12-18T13:22:30;13.60;;;9.52;;
55202;SDS011;41077;52.956;6.796;2022-12-18T13:25:00;16.70;;;9.35;;
55202;SDS011;41077;52.956;6.796;2022-12-18T13:28:48;10.98;;;9.30;;
55202;SDS011;41077;52.956;6.796;2022-12-18T13:43:53;14.63;;;9.15;;
55202;SDS011;41077;52.956;6.796;2022-12-18T13:46:27;13.32;;;9.77;;
55202;SDS011;41077;52.956;6.796;2022-12-18T13:51:48;11.52;;;9.05;;
55202;SDS011;41077;52.956;6.796;2022-12-18T13:56:54;12.98;;;9.98;;
55202;SDS011;41077;52.956;6.796;2022-12-18T13:59:32;13.57;;;9.82;;
55202;SDS011;41077;52.956;6.796;2022-12-18T14:02:00;16.02;;;10.90;;
55202;SDS011;41077;52.956;6.796;2022-12-18T14:04:38;15.38;;;11.25;;
55202;SDS011;41077;52.956;6.796;2022-12-18T14:07:05;13.52;;;10.82;;
55202;SDS011;41077;52.956;6.796;2022-12-18T14:09:43;14.77;;;10.20;;
55202;SDS011;41077;52.956;6.796;2022-12-18T14:12:14;12.90;;;10.77;;
55202;SDS011;41077;52.956;6.796;2022-12-18T14:15:01;18.25;;;11.75;;
55202;SDS011;41077;52.956;6.796;2022-12-18T14:17:28;15.50;;;10.55;;
55202;SDS011;41077;52.956;6.796;2022-12-18T14:19:56;15.05;;;11.68;;
55202;SDS011;41077;52.956;6.796;2022-12-18T14:22:25;15.30;;;11.20;;
55202;SDS011;41077;52.956;6.796;2022-12-18T14:28:08;16.67;;;11.20;;
55202;SDS011;41077;52.956;6.796;2022-12-18T14:30:40;17.90;;;12.45;;
55202;SDS011;41077;52.956;6.796;2022-12-18T14:33:11;16.48;;;12.23;;
55202;SDS011;41077;52.956;6.796;2022-12-18T14:35:42;18.05;;;12.00;;
55202;SDS011;41077;52.956;6.796;2022-12-18T14:38:27;20.08;;;13.40;;
55202;SDS011;41077;52.956;6.796;2022-12-18T14:41:01;17.00;;;11.85;;
55202;SDS011;41077;52.956;6.796;2022-12-18T14:43:35;17.80;;;12.07;;
55202;SDS011;41077;52.956;6.796;2022-12-18T14:46:45;24.00;;;12.13;;
55202;SDS011;41077;52.956;6.796;2022-12-18T14:49:00;17.63;;;11.98;;
55202;SDS011;41077;52.956;6.796;2022-12-18T14:51:31;15.70;;;12.18;;
55202;SDS011;41077;52.956;6.796;2022-12-18T14:53:59;17.48;;;12.20;;
55202;SDS011;41077;52.956;6.796;2022-12-18T14:56:33;21.73;;;12.27;;
55202;SDS011;41077;52.956;6.796;2022-12-18T14:59:20;20.75;;;13.48;;
55202;SDS011;41077;52.956;6.796;2022-12-18T15:09:37;22.00;;;13.65;;
55202;SDS011;41077;52.956;6.796;2022-12-18T15:12:05;21.58;;;13.30;;
55202;SDS011;41077;52.956;6.796;2022-12-18T15:14:42;22.88;;;13.75;;
55202;SDS011;41077;52.956;6.796;2022-12-18T15:17:21;20.98;;;13.23;;
55202;SDS011;41077;52.956;6.796;2022-12-18T15:19:49;18.05;;;13.05;;
55202;SDS011;41077;52.956;6.796;2022-12-18T15:22:18;18.92;;;12.73;;
55202;SDS011;41077;52.956;6.796;2022-12-18T15:24:46;17.52;;;13.15;;
55202;SDS011;41077;52.956;6.796;2022-12-18T15:27:20;20.60;;;11.55;;
55202;SDS011;41077;52.956;6.796;2022-12-18T15:30:15;21.20;;;13.55;;
55202;SDS011;41077;52.956;6.796;2022-12-18T15:32:46;19.38;;;12.77;;
55202;SDS011;41077;52.956;6.796;2022-12-18T15:37:44;17.77;;;12.27;;
55202;SDS011;41077;52.956;6.796;2022-12-18T15:40:14;18.40;;;13.98;;
55202;SDS011;41077;52.956;6.796;2022-12-18T15:42:44;21.05;;;13.95;;
55202;SDS011;41077;52.956;6.796;2022-12-18T15:45:29;18.15;;;14.15;;
55202;SDS011;41077;52.956;6.796;2022-12-18T15:47:55;14.98;;;12.30;;
55202;SDS011;41077;52.956;6.796;2022-12-18T15:50:21;20.65;;;14.60;;
55202;SDS011;41077;52.956;6.796;2022-12-18T15:52:48;20.40;;;13.32;;
55202;SDS011;41077;52.956;6.796;2022-12-18T15:55:19;16.15;;;13.32;;
55202;SDS011;41077;52.956;6.796;2022-12-18T15:58:05;20.52;;;12.90;;
55202;SDS011;41077;52.956;6.796;2022-12-18T16:00:32;21.35;;;13.90;;
55202;SDS011;41077;52.956;6.796;2022-12-18T16:03:00;20.60;;;14.18;;
55202;SDS011;41077;52.956;6.796;2022-12-18T16:05:26;22.23;;;14.25;;
55202;SDS011;41077;52.956;6.796;2022-12-18T16:07:52;26.10;;;13.85;;
55202;SDS011;41077;52.956;6.796;2022-12-18T16:10:18;17.48;;;13.93;;
55202;SDS011;41077;52.956;6.796;2022-12-18T16:12:45;18.17;;;14.25;;
55202;SDS011;41077;52.956;6.796;2022-12-18T16:15:14;20.20;;;13.82;;
55202;SDS011;41077;52.956;6.796;2022-12-18T16:17:41;18.95;;;13.05;;
55202;SDS011;41077;52.956;6.796;2022-12-18T16:20:11;19.10;;;13.00;;
55202;SDS011;41077;52.956;6.796;2022-12-18T16:22:42;17.00;;;12.43;;
55202;SDS011;41077;52.956;6.796;2022-12-18T16:25:24;18.55;;;13.18;;
55202;SDS011;41077;52.956;6.796;2022-12-18T16:27:51;17.63;;;12.07;;
55202;SDS011;41077;52.956;6.796;2022-12-18T16:30:24;18.52;;;12.55;;
55202;SDS011;41077;52.956;6.796;2022-12-18T16:32:52;18.23;;;12.80;;
55202;SDS011;41077;52.956;6.796;2022-12-18T16:35:19;22.65;;;14.57;;
55202;SDS011;41077;52.956;6.796;2022-12-18T16:37:45;17.63;;;12.70;;
55202;SDS011;41077;52.956;6.796;2022-12-18T16:40:12;19.15;;;13.25;;